Lewisburg, WV

1:49 AM EDT on July 31, 2016 (GMT -0400)
Greenbrier Valley | | Change Station

Elev 2303 ft 37.86 °N, 80.40 °W | Updated 14 minutes ago

Clear
Clear
65 °F
Feels Like 65 °F
N
5
Wind Variable Wind from North

Today
High -- | Low -- °F
--% Chance of Precip.
Yesterday
High -- | Low -- °F
Precip. -- in
Pressure 30.09 in
Visibility 4.0 miles
Clouds Clear
Dew Point 64 °F
Humidity 98%
Rainfall 0.00 in
Snow Depth Not available.
6:24 AM 8:30 PM
Waning Crescent, 8% visible
METAR KLWB 310535Z AUTO 01004KT 4SM BR CLR 18/18 A3009 RMK AO2 LTG DSNT SW T01830180
Pressure 30.09 in
Visibility 4.0 miles
Clouds Clear
Dew Point 64 °F
Humidity 98%
Rainfall 0.00 in
Snow Depth Not available.
6:24 AM 8:30 PM
Waning Crescent, 8% visible
METAR KLWB 310535Z AUTO 01004KT 4SM BR CLR 18/18 A3009 RMK AO2 LTG DSNT SW T01830180

10-Day Weather Forecast

Almanac

Astronomy

Jul. 31, 2016 Rise Set
Actual Time
Civil Twilight
Nautical Twilight
Astronomical Twilight
Moon
Length of Visible Light
Length of Day
Tomorrow will be .
, % of the Moon is Illuminated

Today's Extremes

State Highs State Lows

Community

WunderPhotos

Upload Photos

1,928,766 photos uploaded!

WunderBlog® & News

Nearby

Air Quality

  Air Quality AQ Index Pollutant
Not available.

Snow Depth

Station Depth Elevation

Earthquake Activity

City Distance Mag. Time & Date
Minimum magnitude displayed is 2.5.

Coastal Water Temperatures

Place Temperature

Stations

Nearby Weather Stations

Station Location Temp. Windchill Dew Point Humidity Wind Precip. Elev Updated Type
                   

Watches & Warnings

There are currently no watches in effect.